createdAt,value
2018-09-09T00:01:13.979Z,14.85
2018-09-09T00:03:42.789Z,14.83
2018-09-09T00:06:11.478Z,14.82
2018-09-09T00:08:40.571Z,14.70
2018-09-09T00:11:10.187Z,14.63
2018-09-09T00:13:38.967Z,14.56
2018-09-09T00:16:07.830Z,14.47
2018-09-09T00:18:36.691Z,14.37
2018-09-09T00:21:05.899Z,14.32
2018-09-09T00:23:35.136Z,14.20
2018-09-09T00:26:03.870Z,14.11
2018-09-09T00:28:32.567Z,14.04
2018-09-09T00:31:01.237Z,13.92
2018-09-09T00:33:29.851Z,13.78
2018-09-09T00:35:59.636Z,13.76
2018-09-09T00:38:28.466Z,13.86
2018-09-09T00:40:57.186Z,13.84
2018-09-09T00:43:25.735Z,13.87
2018-09-09T00:45:54.967Z,13.85
2018-09-09T00:48:23.655Z,13.86
2018-09-09T00:50:58.886Z,13.87
2018-09-09T00:53:32.783Z,13.92
2018-09-09T00:56:02.127Z,13.97
2018-09-09T00:58:30.685Z,13.98
2018-09-09T01:01:04.403Z,13.98
2018-09-09T01:03:33.586Z,13.94
2018-09-09T01:06:02.244Z,13.98
2018-09-09T01:08:31.156Z,13.93
2018-09-09T01:10:59.916Z,13.91
2018-09-09T01:13:28.768Z,13.83
2018-09-09T01:15:57.395Z,13.73
2018-09-09T01:18:26.576Z,13.61
2018-09-09T01:20:55.200Z,13.54
2018-09-09T01:23:23.875Z,13.54
2018-09-09T01:25:53.610Z,13.48
2018-09-09T01:28:22.276Z,13.48
2018-09-09T01:30:50.988Z,13.52
2018-09-09T01:33:19.632Z,13.52
2018-09-09T01:35:48.920Z,13.54
2018-09-09T01:38:17.624Z,13.57
2018-09-09T01:40:46.737Z,13.57
2018-09-09T01:43:16.612Z,13.55
2018-09-09T01:45:45.416Z,13.49
2018-09-09T01:48:13.980Z,13.43
2018-09-09T01:50:42.675Z,13.41
2018-09-09T01:53:11.906Z,13.43
2018-09-09T01:55:40.464Z,13.37
2018-09-09T01:58:09.155Z,13.33
2018-09-09T02:00:37.856Z,13.32
2018-09-09T02:03:07.037Z,13.27
2018-09-09T02:05:35.838Z,13.27
2018-09-09T02:08:04.955Z,13.30
2018-09-09T02:10:33.599Z,13.28
2018-09-09T02:13:02.440Z,13.23
2018-09-09T02:15:31.316Z,13.18
2018-09-09T02:18:00.054Z,13.16
2018-09-09T02:20:29.160Z,13.15
2018-09-09T02:22:57.876Z,13.15
2018-09-09T02:25:26.594Z,13.19
2018-09-09T02:27:55.195Z,13.22
2018-09-09T02:30:24.956Z,13.23
2018-09-09T02:32:53.819Z,13.23
2018-09-09T02:35:22.548Z,13.28
2018-09-09T02:37:51.364Z,13.31
2018-09-09T02:40:19.937Z,13.29
2018-09-09T02:42:48.604Z,13.28
2018-09-09T02:45:17.196Z,13.24
2018-09-09T02:47:45.808Z,13.21
2018-09-09T02:50:14.370Z,13.21
2018-09-09T02:52:43.064Z,13.19
2018-09-09T02:55:12.123Z,13.20
2018-09-09T02:57:40.839Z,13.13
2018-09-09T03:00:09.463Z,13.14
2018-09-09T03:02:38.356Z,13.13
2018-09-09T03:05:07.091Z,13.18
2018-09-09T03:07:35.638Z,13.20
2018-09-09T03:10:04.276Z,13.20
2018-09-09T03:12:32.856Z,13.18
2018-09-09T03:15:01.639Z,13.18
2018-09-09T03:17:30.300Z,13.19
2018-09-09T03:19:59.143Z,13.21
2018-09-09T03:22:28.312Z,13.23
2018-09-09T03:24:57.517Z,13.18
2018-09-09T03:27:26.299Z,13.18
2018-09-09T03:29:55.098Z,13.19
2018-09-09T03:32:23.887Z,13.16
2018-09-09T03:34:52.553Z,13.16
2018-09-09T03:37:21.135Z,13.12
2018-09-09T03:39:50.324Z,13.07
2018-09-09T03:42:19.004Z,13.06
2018-09-09T03:44:47.747Z,13.09
2018-09-09T03:47:16.580Z,13.08
2018-09-09T03:49:46.091Z,13.09
2018-09-09T03:52:15.444Z,13.03
2018-09-09T03:54:44.064Z,12.96
2018-09-09T03:57:12.960Z,12.85
2018-09-09T03:59:41.623Z,12.79
2018-09-09T04:02:11.159Z,12.78
2018-09-09T04:04:39.682Z,12.70
2018-09-09T04:07:08.925Z,12.66
2018-09-09T04:09:37.793Z,12.71
2018-09-09T04:12:06.608Z,12.71
2018-09-09T04:14:36.305Z,12.70
2018-09-09T04:17:05.528Z,12.71
2018-09-09T04:19:34.120Z,12.71
2018-09-09T04:22:02.883Z,12.72
2018-09-09T04:24:31.740Z,12.81
2018-09-09T04:27:00.428Z,12.81
2018-09-09T04:29:29.163Z,12.81
2018-09-09T04:31:58.586Z,12.75
2018-09-09T04:34:27.107Z,12.68
2018-09-09T04:36:55.678Z,12.55
2018-09-09T04:39:24.036Z,12.56
2018-09-09T04:41:53.491Z,12.63
2018-09-09T04:44:22.269Z,12.72
2018-09-09T04:46:51.103Z,12.74
2018-09-09T04:49:19.850Z,12.75
2018-09-09T04:51:48.623Z,12.75
2018-09-09T04:54:17.810Z,12.78
2018-09-09T04:56:46.466Z,12.77
2018-09-09T04:59:15.105Z,12.77
2018-09-09T05:01:43.691Z,12.72
2018-09-09T05:04:12.581Z,12.71
2018-09-09T05:06:41.296Z,12.65
2018-09-09T05:09:10.360Z,12.65
2018-09-09T05:11:39.061Z,12.66
2018-09-09T05:14:07.928Z,12.65
2018-09-09T05:16:36.854Z,12.67
2018-09-09T05:19:05.776Z,12.69
2018-09-09T05:21:34.324Z,12.81
2018-09-09T05:24:03.056Z,12.94
2018-09-09T05:26:31.860Z,13.07
2018-09-09T05:29:01.450Z,13.08
2018-09-09T05:31:30.253Z,13.09
2018-09-09T05:33:59.051Z,13.09
2018-09-09T05:36:27.859Z,13.11
2018-09-09T05:38:56.645Z,13.19
2018-09-09T05:41:25.484Z,13.27
2018-09-09T05:43:55.003Z,13.36
2018-09-09T05:46:23.812Z,13.48
2018-09-09T05:48:52.580Z,13.58
2018-09-09T05:51:21.148Z,13.69
2018-09-09T05:53:50.210Z,13.77
2018-09-09T05:56:18.812Z,13.87
2018-09-09T05:58:47.488Z,13.92
2018-09-09T06:01:16.090Z,13.90
2018-09-09T06:03:44.855Z,13.92
2018-09-09T06:06:13.397Z,14.01
2018-09-09T06:08:42.207Z,14.07
2018-09-09T06:11:11.474Z,14.14
2018-09-09T06:13:40.393Z,14.25
2018-09-09T06:16:09.337Z,14.31
2018-09-09T06:18:38.001Z,14.40
2018-09-09T06:21:06.954Z,14.48
2018-09-09T06:23:35.483Z,14.60
2018-09-09T06:26:04.009Z,14.70
2018-09-09T06:28:32.815Z,14.84
2018-09-09T06:31:01.412Z,14.99
2018-09-09T06:33:30.104Z,15.11
2018-09-09T06:35:58.656Z,15.21
2018-09-09T06:38:27.271Z,15.38
2018-09-09T06:40:55.943Z,15.56
2018-09-09T06:43:24.641Z,15.71
2018-09-09T06:46:08.367Z,15.82
2018-09-09T06:48:38.179Z,15.95
2018-09-09T06:51:07.051Z,16.07
2018-09-09T06:53:36.596Z,16.20
2018-09-09T06:56:05.276Z,16.26
2018-09-09T06:58:34.843Z,16.33
2018-09-09T07:01:04.245Z,16.43
2018-09-09T07:03:32.951Z,16.51
2018-09-09T07:06:02.332Z,16.63
2018-09-09T07:08:30.988Z,16.79
2018-09-09T07:11:00.067Z,16.97
2018-09-09T07:13:28.491Z,17.06
2018-09-09T07:15:57.219Z,17.16
2018-09-09T07:21:28.860Z,17.36
2018-09-09T07:23:57.463Z,17.49
2018-09-09T07:26:26.708Z,17.57
2018-09-09T07:28:55.376Z,17.72
2018-09-09T07:31:24.039Z,17.92
2018-09-09T07:33:55.688Z,18.06
2018-09-09T07:36:24.942Z,18.16
2018-09-09T07:38:53.571Z,18.29
2018-09-09T07:41:22.259Z,18.35
2018-09-09T07:43:50.945Z,18.34
2018-09-09T07:46:19.911Z,18.38
2018-09-09T07:48:48.407Z,18.48
2018-09-09T07:51:16.999Z,18.52
2018-09-09T07:53:45.556Z,18.50
2018-09-09T07:56:14.144Z,18.68
2018-09-09T07:58:43.936Z,18.79
2018-09-09T08:01:12.570Z,18.96
2018-09-09T08:03:41.216Z,19.11
2018-09-09T08:06:10.781Z,19.22
2018-09-09T08:08:46.180Z,19.29
2018-09-09T08:11:14.864Z,19.45
2018-09-09T08:13:44.095Z,19.49
2018-09-09T08:16:13.081Z,19.64
2018-09-09T08:18:42.297Z,19.80
2018-09-09T08:21:11.309Z,19.91
2018-09-09T08:23:39.935Z,20.08
2018-09-09T08:26:08.523Z,20.25
2018-09-09T08:28:37.500Z,20.36
2018-09-09T08:31:06.179Z,20.43
2018-09-09T08:33:35.093Z,20.69
2018-09-09T08:36:04.372Z,20.80
2018-09-09T08:38:33.036Z,20.64
2018-09-09T08:41:01.703Z,20.95
2018-09-09T08:43:30.467Z,21.10
2018-09-09T08:45:59.129Z,21.26
2018-09-09T08:48:27.882Z,21.45
2018-09-09T08:50:56.635Z,21.65
2018-09-09T08:53:25.180Z,21.86
2018-09-09T08:55:54.696Z,22.02
2018-09-09T08:58:23.819Z,22.09
2018-09-09T09:00:52.647Z,22.22
2018-09-09T09:03:21.780Z,22.34
2018-09-09T09:05:50.665Z,22.61
2018-09-09T09:08:19.534Z,22.70
2018-09-09T09:10:48.194Z,22.98
2018-09-09T09:13:16.896Z,23.21
2018-09-09T09:15:45.457Z,23.25
2018-09-09T09:18:14.072Z,23.12
2018-09-09T09:20:42.875Z,23.05
2018-09-09T09:23:12.976Z,23.07
2018-09-09T09:25:47.576Z,22.97
2018-09-09T09:28:16.769Z,22.90
2018-09-09T09:30:45.511Z,23.31
2018-09-09T09:33:22.731Z,22.91
2018-09-09T09:36:02.511Z,23.28
2018-09-09T09:38:40.557Z,23.53
2018-09-09T09:41:18.691Z,23.25
2018-09-09T09:44:00.289Z,23.77
2018-09-09T09:46:37.851Z,24.25
2018-09-09T09:49:16.366Z,23.85
2018-09-09T09:51:54.887Z,23.94
2018-09-09T09:54:24.022Z,24.20
2018-09-09T09:57:01.583Z,24.32
2018-09-09T09:59:42.055Z,24.32
2018-09-09T10:02:22.222Z,24.88
2018-09-09T10:04:52.026Z,25.16
2018-09-09T10:07:20.760Z,25.36
2018-09-09T10:09:49.384Z,25.19
2018-09-09T10:12:18.211Z,25.58
2018-09-09T10:14:46.751Z,25.26
2018-09-09T10:17:15.625Z,25.14
2018-09-09T10:19:44.350Z,25.18
2018-09-09T10:22:13.214Z,25.60
2018-09-09T10:24:41.908Z,25.84
2018-09-09T10:27:10.805Z,26.14
2018-09-09T10:29:39.513Z,26.92
2018-09-09T10:32:08.172Z,27.43
2018-09-09T10:34:37.227Z,27.18
2018-09-09T10:37:06.540Z,26.99
2018-09-09T10:39:35.240Z,26.66
2018-09-09T10:42:04.170Z,27.08
2018-09-09T10:44:32.823Z,27.05
2018-09-09T10:47:01.411Z,26.84
2018-09-09T10:49:29.983Z,26.53
2018-09-09T10:51:58.673Z,25.93
2018-09-09T10:54:27.560Z,25.75
2018-09-09T10:56:56.272Z,25.75
2018-09-09T10:59:24.911Z,25.64
2018-09-09T11:01:53.630Z,26.21
2018-09-09T11:04:22.565Z,26.23
2018-09-09T11:06:51.393Z,25.69
2018-09-09T11:09:19.956Z,25.56
2018-09-09T11:11:48.531Z,25.99
2018-09-09T11:14:17.244Z,25.95
2018-09-09T11:16:45.917Z,26.24
2018-09-09T11:19:14.751Z,25.65
2018-09-09T11:21:43.508Z,25.52
2018-09-09T11:24:12.185Z,26.01
2018-09-09T11:26:41.038Z,26.16
2018-09-09T11:29:09.879Z,26.52
2018-09-09T11:31:39.255Z,25.78
2018-09-09T11:34:08.435Z,25.98
2018-09-09T11:36:37.243Z,26.14
2018-09-09T11:39:07.968Z,26.29
2018-09-09T11:41:36.919Z,26.44
2018-09-09T11:44:05.864Z,26.15
2018-09-09T11:46:35.309Z,26.46
2018-09-09T11:49:04.140Z,26.47
2018-09-09T11:51:33.287Z,26.33
2018-09-09T11:54:01.933Z,26.32
2018-09-09T11:56:30.724Z,25.97
2018-09-09T11:58:59.548Z,26.16
2018-09-09T12:01:29.521Z,26.42
2018-09-09T12:03:58.116Z,26.79
2018-09-09T12:06:26.888Z,26.46
2018-09-09T12:08:55.685Z,26.77
2018-09-09T12:11:24.364Z,26.52
2018-09-09T12:13:53.888Z,26.61
2018-09-09T12:16:23.689Z,26.75
2018-09-09T12:18:52.457Z,26.91
2018-09-09T12:21:21.125Z,25.98
2018-09-09T12:23:49.808Z,26.04
2018-09-09T12:26:18.370Z,26.05
2018-09-09T12:28:46.980Z,26.51
2018-09-09T12:31:15.681Z,26.64
2018-09-09T12:33:44.499Z,26.78
2018-09-09T12:36:13.111Z,25.83
2018-09-09T12:38:41.707Z,26.31
2018-09-09T12:41:10.412Z,26.35
2018-09-09T12:43:44.108Z,26.29
2018-09-09T12:46:17.758Z,26.59
2018-09-09T12:48:51.444Z,26.81
2018-09-09T12:51:29.757Z,27.09
2018-09-09T12:54:07.786Z,26.92
2018-09-09T12:56:36.797Z,27.03
2018-09-09T12:59:05.407Z,27.45
2018-09-09T13:01:34.395Z,27.23
2018-09-09T13:04:02.968Z,27.08
2018-09-09T13:06:31.770Z,27.55
2018-09-09T13:09:00.355Z,27.29
2018-09-09T13:11:28.885Z,27.09
2018-09-09T13:13:57.670Z,26.95
2018-09-09T13:16:26.463Z,27.01
2018-09-09T13:18:55.080Z,26.53
2018-09-09T13:21:23.748Z,26.77
2018-09-09T13:23:52.304Z,26.66
2018-09-09T13:26:21.095Z,26.95
2018-09-09T13:28:49.829Z,26.40
2018-09-09T13:31:18.515Z,26.70
2018-09-09T13:33:48.668Z,26.81
2018-09-09T13:36:17.304Z,26.98
2018-09-09T13:38:46.004Z,26.42
2018-09-09T13:41:14.686Z,26.82
2018-09-09T13:43:43.421Z,26.99
2018-09-09T13:46:12.060Z,27.27
2018-09-09T13:48:40.940Z,27.11
2018-09-09T13:51:10.279Z,27.38
2018-09-09T13:53:38.977Z,27.56
2018-09-09T13:56:08.243Z,27.76
2018-09-09T13:58:36.929Z,28.11
2018-09-09T14:01:05.569Z,28.42
2018-09-09T14:03:34.144Z,28.55
2018-09-09T14:06:03.563Z,28.37
2018-09-09T14:08:32.461Z,28.42
2018-09-09T14:11:01.139Z,28.28
2018-09-09T14:13:29.738Z,28.46
2018-09-09T14:15:58.958Z,28.34
2018-09-09T14:18:27.619Z,28.63
2018-09-09T14:20:56.312Z,28.35
2018-09-09T14:23:24.970Z,27.65
2018-09-09T14:25:53.679Z,26.56
2018-09-09T14:28:22.353Z,27.13
2018-09-09T14:30:50.949Z,27.45
2018-09-09T14:33:20.249Z,27.56
2018-09-09T14:35:48.791Z,27.60
2018-09-09T14:38:17.718Z,27.56
2018-09-09T14:40:46.292Z,27.61
2018-09-09T14:43:15.068Z,27.83
2018-09-09T14:45:46.031Z,27.93
2018-09-09T14:48:14.700Z,27.87
2018-09-09T14:50:43.523Z,27.58
2018-09-09T14:53:12.554Z,27.26
2018-09-09T14:55:41.371Z,27.06
2018-09-09T14:58:10.093Z,27.12
2018-09-09T15:00:38.841Z,26.86
2018-09-09T15:03:07.947Z,26.61
2018-09-09T15:05:36.796Z,26.51
2018-09-09T15:08:05.623Z,26.27
2018-09-09T15:10:34.269Z,25.95
2018-09-09T15:13:03.401Z,25.96
2018-09-09T15:15:32.229Z,25.93
2018-09-09T15:18:01.371Z,25.95
2018-09-09T15:20:30.152Z,26.01
2018-09-09T15:22:58.951Z,25.95
2018-09-09T15:25:27.628Z,26.08
2018-09-09T15:27:57.036Z,26.16
2018-09-09T15:30:25.768Z,26.16
2018-09-09T15:32:54.533Z,25.94
2018-09-09T15:35:24.471Z,25.95
2018-09-09T15:37:53.090Z,26.02
2018-09-09T15:40:21.804Z,26.10
2018-09-09T15:42:50.518Z,26.21
2018-09-09T15:45:19.208Z,26.35
2018-09-09T15:47:48.974Z,26.30
2018-09-09T15:50:19.198Z,26.06
2018-09-09T15:52:47.800Z,26.04
2018-09-09T15:55:16.813Z,25.44
2018-09-09T15:57:46.011Z,25.50
2018-09-09T16:00:14.903Z,25.56
2018-09-09T16:02:43.912Z,25.66
2018-09-09T16:05:13.737Z,25.52
2018-09-09T16:07:42.420Z,25.52
2018-09-09T16:10:11.242Z,25.53
2018-09-09T16:12:40.130Z,25.73
2018-09-09T16:15:09.702Z,26.66
2018-09-09T16:21:03.486Z,28.84
2018-09-09T16:23:32.475Z,27.85
2018-09-09T16:26:01.184Z,27.15
2018-09-09T16:28:31.106Z,26.59
2018-09-09T16:30:59.750Z,26.08
2018-09-09T16:33:28.924Z,25.69
2018-09-09T16:35:57.815Z,25.32
2018-09-09T16:38:26.371Z,24.90
2018-09-09T16:40:55.953Z,24.59
2018-09-09T16:43:24.494Z,24.18
2018-09-09T16:45:53.132Z,23.83
2018-09-09T16:48:22.078Z,23.55
2018-09-09T16:50:51.664Z,23.30
2018-09-09T16:53:20.721Z,23.12
2018-09-09T16:55:49.320Z,22.81
2018-09-09T16:58:18.395Z,22.54
2018-09-09T17:00:47.518Z,22.40
2018-09-09T17:03:16.431Z,22.31
2018-09-09T17:05:45.082Z,22.13
2018-09-09T17:08:13.744Z,21.97
2018-09-09T17:10:42.375Z,21.79
2018-09-09T17:13:11.293Z,21.58
2018-09-09T17:15:40.024Z,21.42
2018-09-09T17:18:09.436Z,21.30
2018-09-09T17:20:38.416Z,21.22
2018-09-09T17:23:07.505Z,21.08
2018-09-09T17:25:36.933Z,20.94
2018-09-09T17:28:05.753Z,20.90
2018-09-09T17:30:34.592Z,20.98
2018-09-09T17:33:03.367Z,21.05
2018-09-09T17:35:32.162Z,21.04
2018-09-09T17:38:00.836Z,20.87
2018-09-09T17:40:29.392Z,20.71
2018-09-09T17:42:57.980Z,20.65
2018-09-09T17:45:27.003Z,20.61
2018-09-09T17:47:55.756Z,20.59
2018-09-09T17:50:24.565Z,20.58
2018-09-09T17:52:53.356Z,20.60
2018-09-09T17:55:22.197Z,20.58
2018-09-09T17:57:51.044Z,20.58
2018-09-09T18:00:19.945Z,20.48
2018-09-09T18:02:49.990Z,20.49
2018-09-09T18:05:18.823Z,20.53
2018-09-09T18:07:47.676Z,20.53
2018-09-09T18:10:16.585Z,20.56
2018-09-09T18:12:45.277Z,20.52
2018-09-09T18:15:14.417Z,20.55
2018-09-09T18:17:43.063Z,20.52
2018-09-09T18:20:12.609Z,20.35
2018-09-09T18:22:41.991Z,20.17
2018-09-09T18:25:10.576Z,20.08
2018-09-09T18:27:39.603Z,20.03
2018-09-09T18:30:08.755Z,19.98
2018-09-09T18:38:19.042Z,19.64
2018-09-09T18:40:47.782Z,19.71
2018-09-09T18:43:16.739Z,19.74
2018-09-09T18:45:45.392Z,19.82
2018-09-09T18:48:14.079Z,19.83
2018-09-09T18:50:42.775Z,19.79
2018-09-09T18:53:11.913Z,19.68
2018-09-09T18:55:40.494Z,19.42
2018-09-09T18:58:09.212Z,19.30
2018-09-09T19:00:38.097Z,19.16
2018-09-09T19:03:06.829Z,18.89
2018-09-09T19:05:36.104Z,18.68
2018-09-09T19:08:04.998Z,18.60
2018-09-09T19:10:33.772Z,18.68
2018-09-09T19:13:02.336Z,18.71
2018-09-09T19:15:31.044Z,18.80
2018-09-09T19:17:59.719Z,18.88
2018-09-09T19:20:28.452Z,18.87
2018-09-09T19:22:57.245Z,18.85
2018-09-09T19:25:25.915Z,18.79
2018-09-09T19:27:54.651Z,18.80
2018-09-09T19:30:23.937Z,18.83
2018-09-09T19:32:53.449Z,18.87
2018-09-09T19:35:23.744Z,18.84
2018-09-09T19:37:52.458Z,18.87
2018-09-09T19:40:21.175Z,18.84
2018-09-09T19:42:49.819Z,18.74
2018-09-09T19:45:18.365Z,18.64
2018-09-09T19:47:46.993Z,18.52
2018-09-09T19:50:15.688Z,18.45
2018-09-09T19:52:45.001Z,18.41
2018-09-09T19:55:14.249Z,18.34
2018-09-09T19:57:43.116Z,18.26
2018-09-09T20:00:11.843Z,18.25
2018-09-09T20:02:41.439Z,18.24
2018-09-09T20:05:10.743Z,18.16
2018-09-09T20:07:39.347Z,18.09
2018-09-09T20:10:07.882Z,18.10
2018-09-09T20:12:36.600Z,18.10
2018-09-09T20:15:06.268Z,18.11
2018-09-09T20:17:35.298Z,18.11
2018-09-09T20:20:04.153Z,18.12
2018-09-09T20:22:33.617Z,18.05
2018-09-09T20:25:02.454Z,18.00
2018-09-09T20:27:31.032Z,17.96
2018-09-09T20:29:59.777Z,17.85
2018-09-09T20:32:28.659Z,17.80
2018-09-09T20:34:57.756Z,17.76
2018-09-09T20:37:26.835Z,17.73
2018-09-09T20:39:55.695Z,17.74
2018-09-09T20:42:24.407Z,17.68
2018-09-09T20:44:53.243Z,17.72
2018-09-09T20:47:22.152Z,17.71
2018-09-09T20:49:50.885Z,17.74
2018-09-09T20:52:19.963Z,17.67
2018-09-09T20:54:48.718Z,17.65
2018-09-09T20:57:17.624Z,17.58
2018-09-09T20:59:46.256Z,17.51
2018-09-09T21:02:15.102Z,17.52
2018-09-09T21:04:43.802Z,17.52
2018-09-09T21:07:12.634Z,17.58
2018-09-09T21:09:41.262Z,17.63
2018-09-09T21:12:10.096Z,17.62
2018-09-09T21:14:38.940Z,17.63
2018-09-09T21:17:07.560Z,17.63
2018-09-09T21:19:36.100Z,17.60
2018-09-09T21:22:04.797Z,17.52
2018-09-09T21:24:33.500Z,17.46
2018-09-09T21:27:02.177Z,17.36
2018-09-09T21:29:30.980Z,17.25
2018-09-09T21:32:00.625Z,17.10
2018-09-09T21:34:30.271Z,16.99
2018-09-09T21:36:59.196Z,16.96
2018-09-09T21:39:28.464Z,16.96
2018-09-09T21:41:57.371Z,16.98
2018-09-09T21:44:26.242Z,16.98
2018-09-09T21:46:55.120Z,16.99
2018-09-09T21:49:23.727Z,17.02
2018-09-09T21:51:52.504Z,16.94
2018-09-09T21:54:21.193Z,16.89
2018-09-09T21:56:49.867Z,16.84
2018-09-09T21:59:18.512Z,16.85
2018-09-09T22:01:52.711Z,16.84
2018-09-09T22:04:21.432Z,16.86
2018-09-09T22:06:50.196Z,16.76
2018-09-09T22:09:18.824Z,16.76
2018-09-09T22:11:47.352Z,16.72
2018-09-09T22:17:07.280Z,16.69
2018-09-09T22:22:38.851Z,16.48
2018-09-09T22:25:07.419Z,16.38
2018-09-09T22:27:36.456Z,16.28
2018-09-09T22:30:06.883Z,16.26
2018-09-09T22:32:35.590Z,16.25
2018-09-09T22:35:04.570Z,16.27
2018-09-09T22:37:33.979Z,16.34
2018-09-09T22:40:02.632Z,16.29
2018-09-09T22:42:31.327Z,16.27
2018-09-09T22:45:00.007Z,16.28
2018-09-09T22:47:28.703Z,16.23
2018-09-09T22:49:57.329Z,16.18
2018-09-09T22:52:26.080Z,16.08
2018-09-09T22:54:54.944Z,16.03
2018-09-09T22:57:23.661Z,15.88
2018-09-09T22:59:52.198Z,15.87
2018-09-09T23:02:20.747Z,15.80
2018-09-09T23:04:49.923Z,15.78
2018-09-09T23:07:18.562Z,15.69
2018-09-09T23:09:47.261Z,15.63
2018-09-09T23:12:15.984Z,15.63
2018-09-09T23:14:44.585Z,15.58
2018-09-09T23:17:13.531Z,15.43
2018-09-09T23:19:42.190Z,15.55
2018-09-09T23:22:11.082Z,15.56
2018-09-09T23:24:39.741Z,15.51
2018-09-09T23:27:08.487Z,15.47
2018-09-09T23:29:37.797Z,15.44
2018-09-09T23:32:06.827Z,15.44
2018-09-09T23:34:35.523Z,15.38
2018-09-09T23:37:04.247Z,15.32
2018-09-09T23:39:34.169Z,15.29
2018-09-09T23:42:03.018Z,15.31
2018-09-09T23:44:31.725Z,15.25
2018-09-09T23:47:00.554Z,15.22
2018-09-09T23:49:29.288Z,15.23
2018-09-09T23:51:58.173Z,15.24
2018-09-09T23:54:26.920Z,15.29
2018-09-09T23:56:56.613Z,15.32
2018-09-09T23:59:26.383Z,15.35
